sensor_id;sensor_type;location;lat;lon;timestamp;P1;durP1;ratioP1;P2;durP2;ratioP2
10059;SDS011;5069;49.306;8.636;2023-05-16T00:01:17;23.20;;;20.70;;
10059;SDS011;5069;49.306;8.636;2023-05-16T00:04:19;23.10;;;20.40;;
10059;SDS011;5069;49.306;8.636;2023-05-16T00:07:21;28.90;;;19.87;;
10059;SDS011;5069;49.306;8.636;2023-05-16T00:10:22;26.90;;;19.53;;
10059;SDS011;5069;49.306;8.636;2023-05-16T00:13:24;22.00;;;19.50;;
10059;SDS011;5069;49.306;8.636;2023-05-16T00:16:26;24.27;;;19.73;;
10059;SDS011;5069;49.306;8.636;2023-05-16T00:19:30;23.27;;;18.73;;
10059;SDS011;5069;49.306;8.636;2023-05-16T00:22:31;20.00;;;17.00;;
10059;SDS011;5069;49.306;8.636;2023-05-16T00:25:33;23.03;;;18.27;;
10059;SDS011;5069;49.306;8.636;2023-05-16T00:28:34;21.53;;;17.03;;
10059;SDS011;5069;49.306;8.636;2023-05-16T00:31:37;20.43;;;17.97;;
10059;SDS011;5069;49.306;8.636;2023-05-16T00:34:38;20.43;;;18.23;;
10059;SDS011;5069;49.306;8.636;2023-05-16T00:37:40;27.23;;;19.17;;
10059;SDS011;5069;49.306;8.636;2023-05-16T00:40:41;30.87;;;20.47;;
10059;SDS011;5069;49.306;8.636;2023-05-16T00:43:43;29.53;;;23.07;;
10059;SDS011;5069;49.306;8.636;2023-05-16T00:46:45;35.70;;;28.23;;
10059;SDS011;5069;49.306;8.636;2023-05-16T00:49:46;41.83;;;30.30;;
10059;SDS011;5069;49.306;8.636;2023-05-16T00:52:49;40.43;;;30.30;;
10059;SDS011;5069;49.306;8.636;2023-05-16T00:55:51;40.53;;;30.93;;
10059;SDS011;5069;49.306;8.636;2023-05-16T00:58:53;42.37;;;31.03;;
10059;SDS011;5069;49.306;8.636;2023-05-16T01:01:54;45.23;;;32.10;;
10059;SDS011;5069;49.306;8.636;2023-05-16T01:04:56;47.63;;;33.63;;
10059;SDS011;5069;49.306;8.636;2023-05-16T01:07:58;42.93;;;31.97;;
10059;SDS011;5069;49.306;8.636;2023-05-16T01:11:01;45.33;;;32.10;;
10059;SDS011;5069;49.306;8.636;2023-05-16T01:14:28;44.27;;;32.83;;
10059;SDS011;5069;49.306;8.636;2023-05-16T01:21:02;46.70;;;33.67;;
10059;SDS011;5069;49.306;8.636;2023-05-16T01:27:16;42.43;;;32.00;;
10059;SDS011;5069;49.306;8.636;2023-05-16T01:30:18;48.77;;;34.57;;
10059;SDS011;5069;49.306;8.636;2023-05-16T01:33:20;46.57;;;34.17;;
10059;SDS011;5069;49.306;8.636;2023-05-16T01:39:51;46.10;;;33.47;;
10059;SDS011;5069;49.306;8.636;2023-05-16T01:42:58;45.87;;;35.23;;
10059;SDS011;5069;49.306;8.636;2023-05-16T01:46:06;47.47;;;35.07;;
10059;SDS011;5069;49.306;8.636;2023-05-16T01:52:27;47.53;;;35.30;;
10059;SDS011;5069;49.306;8.636;2023-05-16T01:55:55;44.90;;;34.10;;
10059;SDS011;5069;49.306;8.636;2023-05-16T01:59:00;44.47;;;33.80;;
10059;SDS011;5069;49.306;8.636;2023-05-16T02:02:05;48.07;;;34.80;;
10059;SDS011;5069;49.306;8.636;2023-05-16T02:05:07;39.10;;;31.37;;
10059;SDS011;5069;49.306;8.636;2023-05-16T02:08:09;41.00;;;30.43;;
10059;SDS011;5069;49.306;8.636;2023-05-16T02:11:11;44.97;;;33.87;;
10059;SDS011;5069;49.306;8.636;2023-05-16T02:14:13;42.83;;;33.27;;
10059;SDS011;5069;49.306;8.636;2023-05-16T02:17:14;42.13;;;32.97;;
10059;SDS011;5069;49.306;8.636;2023-05-16T02:20:16;42.30;;;31.63;;
10059;SDS011;5069;49.306;8.636;2023-05-16T02:23:18;41.90;;;32.23;;
10059;SDS011;5069;49.306;8.636;2023-05-16T02:26:19;42.50;;;32.60;;
10059;SDS011;5069;49.306;8.636;2023-05-16T02:29:21;41.83;;;31.60;;
10059;SDS011;5069;49.306;8.636;2023-05-16T02:32:22;43.17;;;32.33;;
10059;SDS011;5069;49.306;8.636;2023-05-16T02:35:25;44.00;;;31.63;;
10059;SDS011;5069;49.306;8.636;2023-05-16T02:38:27;39.97;;;30.67;;
10059;SDS011;5069;49.306;8.636;2023-05-16T02:41:29;42.63;;;32.63;;
10059;SDS011;5069;49.306;8.636;2023-05-16T02:44:31;38.30;;;30.27;;
10059;SDS011;5069;49.306;8.636;2023-05-16T02:47:33;39.60;;;31.13;;
10059;SDS011;5069;49.306;8.636;2023-05-16T02:50:35;42.40;;;31.37;;
10059;SDS011;5069;49.306;8.636;2023-05-16T02:53:37;39.07;;;30.30;;
10059;SDS011;5069;49.306;8.636;2023-05-16T02:56:39;39.43;;;29.87;;
10059;SDS011;5069;49.306;8.636;2023-05-16T02:59:40;39.37;;;30.17;;
10059;SDS011;5069;49.306;8.636;2023-05-16T03:02:42;39.07;;;28.73;;
10059;SDS011;5069;49.306;8.636;2023-05-16T03:05:44;37.93;;;29.47;;
10059;SDS011;5069;49.306;8.636;2023-05-16T03:08:46;37.67;;;27.57;;
10059;SDS011;5069;49.306;8.636;2023-05-16T03:11:50;36.03;;;27.63;;
10059;SDS011;5069;49.306;8.636;2023-05-16T03:14:53;35.77;;;27.10;;
10059;SDS011;5069;49.306;8.636;2023-05-16T03:17:54;34.40;;;26.83;;
10059;SDS011;5069;49.306;8.636;2023-05-16T03:20:57;30.23;;;23.60;;
10059;SDS011;5069;49.306;8.636;2023-05-16T03:23:59;30.77;;;22.57;;
10059;SDS011;5069;49.306;8.636;2023-05-16T03:27:01;27.10;;;21.60;;
10059;SDS011;5069;49.306;8.636;2023-05-16T03:30:04;32.47;;;22.43;;
10059;SDS011;5069;49.306;8.636;2023-05-16T03:33:06;28.70;;;21.43;;
10059;SDS011;5069;49.306;8.636;2023-05-16T03:36:08;28.73;;;22.53;;
10059;SDS011;5069;49.306;8.636;2023-05-16T03:39:09;31.50;;;21.70;;
10059;SDS011;5069;49.306;8.636;2023-05-16T03:42:11;28.60;;;21.53;;
10059;SDS011;5069;49.306;8.636;2023-05-16T03:45:12;27.50;;;21.07;;
10059;SDS011;5069;49.306;8.636;2023-05-16T03:48:14;28.97;;;21.93;;
10059;SDS011;5069;49.306;8.636;2023-05-16T03:51:15;26.03;;;18.87;;
10059;SDS011;5069;49.306;8.636;2023-05-16T03:54:17;28.33;;;20.30;;
10059;SDS011;5069;49.306;8.636;2023-05-16T03:57:18;26.37;;;19.73;;
10059;SDS011;5069;49.306;8.636;2023-05-16T04:00:19;31.00;;;20.23;;
10059;SDS011;5069;49.306;8.636;2023-05-16T04:03:21;29.07;;;19.90;;
10059;SDS011;5069;49.306;8.636;2023-05-16T04:06:28;27.07;;;19.83;;
10059;SDS011;5069;49.306;8.636;2023-05-16T04:09:30;27.20;;;19.07;;
10059;SDS011;5069;49.306;8.636;2023-05-16T04:12:31;23.77;;;18.53;;
10059;SDS011;5069;49.306;8.636;2023-05-16T04:15:33;26.47;;;18.77;;
10059;SDS011;5069;49.306;8.636;2023-05-16T04:18:34;23.83;;;17.90;;
10059;SDS011;5069;49.306;8.636;2023-05-16T04:21:36;24.13;;;18.40;;
10059;SDS011;5069;49.306;8.636;2023-05-16T04:24:37;30.07;;;18.50;;
10059;SDS011;5069;49.306;8.636;2023-05-16T04:27:38;27.43;;;18.63;;
10059;SDS011;5069;49.306;8.636;2023-05-16T04:30:40;25.13;;;17.97;;
10059;SDS011;5069;49.306;8.636;2023-05-16T04:33:41;23.73;;;18.10;;
10059;SDS011;5069;49.306;8.636;2023-05-16T04:36:43;23.53;;;16.77;;
10059;SDS011;5069;49.306;8.636;2023-05-16T04:39:44;25.90;;;17.90;;
10059;SDS011;5069;49.306;8.636;2023-05-16T04:42:47;24.37;;;17.40;;
10059;SDS011;5069;49.306;8.636;2023-05-16T04:45:48;26.10;;;17.80;;
10059;SDS011;5069;49.306;8.636;2023-05-16T04:48:50;23.87;;;18.30;;
10059;SDS011;5069;49.306;8.636;2023-05-16T04:51:52;23.77;;;17.90;;
10059;SDS011;5069;49.306;8.636;2023-05-16T04:54:54;23.97;;;18.13;;
10059;SDS011;5069;49.306;8.636;2023-05-16T04:57:56;27.17;;;18.30;;
10059;SDS011;5069;49.306;8.636;2023-05-16T05:00:57;23.10;;;17.87;;
10059;SDS011;5069;49.306;8.636;2023-05-16T05:04:01;25.50;;;18.53;;
10059;SDS011;5069;49.306;8.636;2023-05-16T05:07:03;27.20;;;17.90;;
10059;SDS011;5069;49.306;8.636;2023-05-16T05:10:04;26.67;;;18.37;;
10059;SDS011;5069;49.306;8.636;2023-05-16T05:13:09;25.53;;;17.73;;
10059;SDS011;5069;49.306;8.636;2023-05-16T05:16:11;25.77;;;17.53;;
10059;SDS011;5069;49.306;8.636;2023-05-16T05:19:13;26.53;;;18.60;;
10059;SDS011;5069;49.306;8.636;2023-05-16T05:22:15;26.73;;;18.43;;
10059;SDS011;5069;49.306;8.636;2023-05-16T05:25:16;28.97;;;18.37;;
10059;SDS011;5069;49.306;8.636;2023-05-16T05:28:18;27.50;;;18.03;;
10059;SDS011;5069;49.306;8.636;2023-05-16T05:31:19;27.17;;;18.40;;
10059;SDS011;5069;49.306;8.636;2023-05-16T05:34:21;25.33;;;17.73;;
10059;SDS011;5069;49.306;8.636;2023-05-16T05:37:22;27.17;;;16.47;;
10059;SDS011;5069;49.306;8.636;2023-05-16T05:40:24;25.60;;;17.33;;
10059;SDS011;5069;49.306;8.636;2023-05-16T05:43:26;22.80;;;16.27;;
10059;SDS011;5069;49.306;8.636;2023-05-16T05:46:28;20.97;;;15.17;;
10059;SDS011;5069;49.306;8.636;2023-05-16T05:49:29;23.20;;;14.93;;
10059;SDS011;5069;49.306;8.636;2023-05-16T05:52:31;22.00;;;15.83;;
10059;SDS011;5069;49.306;8.636;2023-05-16T05:55:33;24.63;;;15.00;;
10059;SDS011;5069;49.306;8.636;2023-05-16T05:58:34;30.13;;;15.30;;
10059;SDS011;5069;49.306;8.636;2023-05-16T06:01:36;19.40;;;13.80;;
10059;SDS011;5069;49.306;8.636;2023-05-16T06:04:38;25.63;;;13.60;;
10059;SDS011;5069;49.306;8.636;2023-05-16T06:07:39;19.73;;;13.77;;
10059;SDS011;5069;49.306;8.636;2023-05-16T06:10:41;19.77;;;13.20;;
10059;SDS011;5069;49.306;8.636;2023-05-16T06:13:42;26.10;;;13.00;;
10059;SDS011;5069;49.306;8.636;2023-05-16T06:16:44;20.07;;;13.13;;
10059;SDS011;5069;49.306;8.636;2023-05-16T06:19:45;22.00;;;11.37;;
10059;SDS011;5069;49.306;8.636;2023-05-16T06:22:47;16.17;;;10.63;;
10059;SDS011;5069;49.306;8.636;2023-05-16T06:25:49;14.80;;;10.47;;
10059;SDS011;5069;49.306;8.636;2023-05-16T06:28:50;14.47;;;10.23;;
10059;SDS011;5069;49.306;8.636;2023-05-16T06:31:52;14.03;;;9.77;;
10059;SDS011;5069;49.306;8.636;2023-05-16T06:34:54;16.63;;;9.37;;
10059;SDS011;5069;49.306;8.636;2023-05-16T06:37:55;14.83;;;9.30;;
10059;SDS011;5069;49.306;8.636;2023-05-16T06:40:57;14.57;;;9.00;;
10059;SDS011;5069;49.306;8.636;2023-05-16T06:43:58;12.13;;;7.80;;
10059;SDS011;5069;49.306;8.636;2023-05-16T06:47:00;8.53;;;7.00;;
10059;SDS011;5069;49.306;8.636;2023-05-16T06:50:02;11.73;;;7.17;;
10059;SDS011;5069;49.306;8.636;2023-05-16T06:53:03;8.17;;;6.13;;
10059;SDS011;5069;49.306;8.636;2023-05-16T06:56:07;6.90;;;5.70;;
10059;SDS011;5069;49.306;8.636;2023-05-16T06:59:08;8.60;;;6.10;;
10059;SDS011;5069;49.306;8.636;2023-05-16T07:02:09;7.60;;;5.57;;
10059;SDS011;5069;49.306;8.636;2023-05-16T07:05:11;9.87;;;7.00;;
10059;SDS011;5069;49.306;8.636;2023-05-16T07:08:12;7.03;;;6.00;;
10059;SDS011;5069;49.306;8.636;2023-05-16T07:11:14;7.80;;;6.23;;
10059;SDS011;5069;49.306;8.636;2023-05-16T07:14:15;7.57;;;5.77;;
10059;SDS011;5069;49.306;8.636;2023-05-16T07:17:17;6.33;;;5.27;;
10059;SDS011;5069;49.306;8.636;2023-05-16T07:20:18;7.57;;;4.93;;
10059;SDS011;5069;49.306;8.636;2023-05-16T07:23:20;6.43;;;4.53;;
10059;SDS011;5069;49.306;8.636;2023-05-16T07:26:22;5.43;;;4.57;;
10059;SDS011;5069;49.306;8.636;2023-05-16T07:29:24;5.00;;;3.90;;
10059;SDS011;5069;49.306;8.636;2023-05-16T07:32:25;4.60;;;3.60;;
10059;SDS011;5069;49.306;8.636;2023-05-16T07:35:27;4.83;;;3.60;;
10059;SDS011;5069;49.306;8.636;2023-05-16T07:38:28;5.40;;;3.17;;
10059;SDS011;5069;49.306;8.636;2023-05-16T07:41:30;6.13;;;3.47;;
10059;SDS011;5069;49.306;8.636;2023-05-16T07:44:32;5.57;;;2.63;;
10059;SDS011;5069;49.306;8.636;2023-05-16T07:47:34;4.07;;;2.67;;
10059;SDS011;5069;49.306;8.636;2023-05-16T07:50:36;3.17;;;2.30;;
10059;SDS011;5069;49.306;8.636;2023-05-16T07:53:37;5.30;;;2.33;;
10059;SDS011;5069;49.306;8.636;2023-05-16T07:56:39;2.33;;;2.07;;
10059;SDS011;5069;49.306;8.636;2023-05-16T07:59:40;3.43;;;2.20;;
10059;SDS011;5069;49.306;8.636;2023-05-16T08:02:42;2.93;;;2.13;;
10059;SDS011;5069;49.306;8.636;2023-05-16T08:05:44;2.07;;;1.70;;
10059;SDS011;5069;49.306;8.636;2023-05-16T08:08:46;3.40;;;1.93;;
10059;SDS011;5069;49.306;8.636;2023-05-16T08:11:47;3.30;;;2.10;;
10059;SDS011;5069;49.306;8.636;2023-05-16T08:14:49;6.13;;;2.00;;
10059;SDS011;5069;49.306;8.636;2023-05-16T08:17:50;4.07;;;2.07;;
10059;SDS011;5069;49.306;8.636;2023-05-16T08:20:52;3.73;;;2.07;;
10059;SDS011;5069;49.306;8.636;2023-05-16T08:23:53;2.07;;;1.87;;
10059;SDS011;5069;49.306;8.636;2023-05-16T08:26:55;2.40;;;2.10;;
10059;SDS011;5069;49.306;8.636;2023-05-16T08:29:56;5.03;;;2.20;;
10059;SDS011;5069;49.306;8.636;2023-05-16T08:32:58;2.23;;;1.90;;
10059;SDS011;5069;49.306;8.636;2023-05-16T08:35:59;1.70;;;1.60;;
10059;SDS011;5069;49.306;8.636;2023-05-16T08:39:01;7.73;;;2.20;;
10059;SDS011;5069;49.306;8.636;2023-05-16T08:42:02;2.50;;;1.60;;
10059;SDS011;5069;49.306;8.636;2023-05-16T08:45:05;2.33;;;1.23;;
10059;SDS011;5069;49.306;8.636;2023-05-16T08:48:08;1.33;;;1.00;;
10059;SDS011;5069;49.306;8.636;2023-05-16T08:51:11;6.93;;;1.47;;
10059;SDS011;5069;49.306;8.636;2023-05-16T08:54:15;1.20;;;1.10;;
10059;SDS011;5069;49.306;8.636;2023-05-16T08:57:17;3.47;;;0.90;;
10059;SDS011;5069;49.306;8.636;2023-05-16T09:00:20;2.27;;;1.33;;
10059;SDS011;5069;49.306;8.636;2023-05-16T09:03:22;1.67;;;1.10;;
10059;SDS011;5069;49.306;8.636;2023-05-16T09:06:25;1.17;;;1.03;;
10059;SDS011;5069;49.306;8.636;2023-05-16T09:09:27;1.13;;;0.83;;
10059;SDS011;5069;49.306;8.636;2023-05-16T09:12:30;5.10;;;0.97;;
10059;SDS011;5069;49.306;8.636;2023-05-16T09:15:32;0.90;;;0.90;;
10059;SDS011;5069;49.306;8.636;2023-05-16T09:18:34;1.20;;;1.00;;
10059;SDS011;5069;49.306;8.636;2023-05-16T09:21:38;2.23;;;1.10;;
10059;SDS011;5069;49.306;8.636;2023-05-16T09:24:43;2.20;;;1.20;;
10059;SDS011;5069;49.306;8.636;2023-05-16T09:27:46;2.80;;;1.00;;
10059;SDS011;5069;49.306;8.636;2023-05-16T09:30:48;1.30;;;1.07;;
10059;SDS011;5069;49.306;8.636;2023-05-16T09:33:54;1.93;;;1.17;;
10059;SDS011;5069;49.306;8.636;2023-05-16T09:36:56;2.23;;;1.40;;
10059;SDS011;5069;49.306;8.636;2023-05-16T09:39:59;0.97;;;0.87;;
10059;SDS011;5069;49.306;8.636;2023-05-16T09:46:04;1.20;;;1.10;;
10059;SDS011;5069;49.306;8.636;2023-05-16T09:49:06;1.30;;;1.20;;
10059;SDS011;5069;49.306;8.636;2023-05-16T09:52:12;1.30;;;1.20;;
10059;SDS011;5069;49.306;8.636;2023-05-16T09:55:14;2.30;;;1.10;;
10059;SDS011;5069;49.306;8.636;2023-05-16T09:58:16;4.20;;;0.90;;
10059;SDS011;5069;49.306;8.636;2023-05-16T10:01:18;1.83;;;0.70;;
10059;SDS011;5069;49.306;8.636;2023-05-16T10:04:20;0.60;;;0.60;;
10059;SDS011;5069;49.306;8.636;2023-05-16T10:07:22;0.60;;;0.60;;
10059;SDS011;5069;49.306;8.636;2023-05-16T10:10:23;1.17;;;0.60;;
10059;SDS011;5069;49.306;8.636;2023-05-16T10:13:29;2.90;;;0.90;;
10059;SDS011;5069;49.306;8.636;2023-05-16T10:16:32;1.93;;;1.10;;
10059;SDS011;5069;49.306;8.636;2023-05-16T10:19:35;0.80;;;0.70;;
10059;SDS011;5069;49.306;8.636;2023-05-16T10:22:40;1.07;;;0.70;;
10059;SDS011;5069;49.306;8.636;2023-05-16T10:25:44;7.37;;;1.00;;
10059;SDS011;5069;49.306;8.636;2023-05-16T10:28:47;4.63;;;1.00;;
10059;SDS011;5069;49.306;8.636;2023-05-16T10:31:50;6.00;;;1.13;;
10059;SDS011;5069;49.306;8.636;2023-05-16T10:34:53;0.80;;;0.73;;
10059;SDS011;5069;49.306;8.636;2023-05-16T10:37:56;8.10;;;1.70;;
10059;SDS011;5069;49.306;8.636;2023-05-16T10:40:58;1.17;;;0.80;;
10059;SDS011;5069;49.306;8.636;2023-05-16T10:44:01;1.20;;;0.90;;
10059;SDS011;5069;49.306;8.636;2023-05-16T10:47:03;1.73;;;0.77;;
10059;SDS011;5069;49.306;8.636;2023-05-16T10:50:05;4.83;;;1.00;;
10059;SDS011;5069;49.306;8.636;2023-05-16T10:53:49;0.93;;;0.60;;
10059;SDS011;5069;49.306;8.636;2023-05-16T10:56:37;1.33;;;0.77;;
10059;SDS011;5069;49.306;8.636;2023-05-16T10:59:41;1.03;;;0.87;;
10059;SDS011;5069;49.306;8.636;2023-05-16T11:02:45;3.57;;;0.90;;
10059;SDS011;5069;49.306;8.636;2023-05-16T11:05:49;1.50;;;0.87;;
10059;SDS011;5069;49.306;8.636;2023-05-16T11:12:10;1.70;;;0.87;;
10059;SDS011;5069;49.306;8.636;2023-05-16T11:15:26;2.40;;;0.83;;
10059;SDS011;5069;49.306;8.636;2023-05-16T11:18:31;1.03;;;0.77;;
10059;SDS011;5069;49.306;8.636;2023-05-16T11:25:19;1.00;;;0.90;;
10059;SDS011;5069;49.306;8.636;2023-05-16T11:28:36;0.93;;;0.60;;
10059;SDS011;5069;49.306;8.636;2023-05-16T11:31:37;1.67;;;0.90;;
10059;SDS011;5069;49.306;8.636;2023-05-16T11:34:40;1.17;;;0.80;;
10059;SDS011;5069;49.306;8.636;2023-05-16T11:37:46;1.27;;;0.80;;
10059;SDS011;5069;49.306;8.636;2023-05-16T11:40:47;2.43;;;1.10;;
10059;SDS011;5069;49.306;8.636;2023-05-16T11:43:49;2.30;;;0.90;;
10059;SDS011;5069;49.306;8.636;2023-05-16T11:46:50;2.40;;;0.80;;
10059;SDS011;5069;49.306;8.636;2023-05-16T11:49:56;1.30;;;0.80;;
10059;SDS011;5069;49.306;8.636;2023-05-16T11:52:58;2.37;;;1.00;;
10059;SDS011;5069;49.306;8.636;2023-05-16T11:56:00;1.93;;;1.13;;
10059;SDS011;5069;49.306;8.636;2023-05-16T11:59:02;1.30;;;1.00;;
10059;SDS011;5069;49.306;8.636;2023-05-16T12:02:04;0.80;;;0.80;;
10059;SDS011;5069;49.306;8.636;2023-05-16T12:05:07;8.57;;;1.30;;
10059;SDS011;5069;49.306;8.636;2023-05-16T12:08:10;4.30;;;1.20;;
10059;SDS011;5069;49.306;8.636;2023-05-16T12:11:11;2.17;;;1.00;;
10059;SDS011;5069;49.306;8.636;2023-05-16T12:14:13;2.40;;;1.30;;
10059;SDS011;5069;49.306;8.636;2023-05-16T12:17:19;5.13;;;1.20;;
10059;SDS011;5069;49.306;8.636;2023-05-16T12:20:22;2.60;;;1.03;;
10059;SDS011;5069;49.306;8.636;2023-05-16T12:23:26;1.67;;;1.03;;
10059;SDS011;5069;49.306;8.636;2023-05-16T12:26:29;2.73;;;1.03;;
10059;SDS011;5069;49.306;8.636;2023-05-16T12:29:33;2.10;;;1.30;;
10059;SDS011;5069;49.306;8.636;2023-05-16T12:32:35;2.40;;;1.47;;
10059;SDS011;5069;49.306;8.636;2023-05-16T12:35:47;2.83;;;1.70;;
10059;SDS011;5069;49.306;8.636;2023-05-16T12:38:48;5.03;;;1.43;;
10059;SDS011;5069;49.306;8.636;2023-05-16T12:41:51;2.87;;;1.67;;
10059;SDS011;5069;49.306;8.636;2023-05-16T12:44:56;3.20;;;1.37;;
10059;SDS011;5069;49.306;8.636;2023-05-16T12:48:02;3.60;;;1.33;;
10059;SDS011;5069;49.306;8.636;2023-05-16T12:51:12;4.90;;;1.50;;
10059;SDS011;5069;49.306;8.636;2023-05-16T12:54:14;5.10;;;1.50;;
10059;SDS011;5069;49.306;8.636;2023-05-16T12:57:16;4.50;;;1.60;;
10059;SDS011;5069;49.306;8.636;2023-05-16T13:00:20;4.63;;;1.87;;
10059;SDS011;5069;49.306;8.636;2023-05-16T13:03:21;5.13;;;1.77;;
10059;SDS011;5069;49.306;8.636;2023-05-16T13:06:23;3.53;;;1.47;;
10059;SDS011;5069;49.306;8.636;2023-05-16T13:09:25;3.33;;;1.50;;
10059;SDS011;5069;49.306;8.636;2023-05-16T13:12:30;2.97;;;1.50;;
10059;SDS011;5069;49.306;8.636;2023-05-16T13:15:32;3.70;;;1.80;;
10059;SDS011;5069;49.306;8.636;2023-05-16T13:18:33;6.77;;;1.80;;
10059;SDS011;5069;49.306;8.636;2023-05-16T13:21:36;5.73;;;1.63;;
10059;SDS011;5069;49.306;8.636;2023-05-16T13:24:38;2.30;;;1.30;;
10059;SDS011;5069;49.306;8.636;2023-05-16T13:27:39;9.17;;;2.10;;
10059;SDS011;5069;49.306;8.636;2023-05-16T13:30:40;5.53;;;1.80;;
10059;SDS011;5069;49.306;8.636;2023-05-16T13:33:42;3.97;;;1.57;;
10059;SDS011;5069;49.306;8.636;2023-05-16T13:36:43;3.27;;;1.63;;
10059;SDS011;5069;49.306;8.636;2023-05-16T13:39:55;3.90;;;1.63;;
10059;SDS011;5069;49.306;8.636;2023-05-16T13:42:56;6.27;;;2.07;;
10059;SDS011;5069;49.306;8.636;2023-05-16T13:45:57;10.03;;;1.83;;
10059;SDS011;5069;49.306;8.636;2023-05-16T13:48:59;6.80;;;1.97;;
10059;SDS011;5069;49.306;8.636;2023-05-16T13:52:02;6.27;;;2.10;;
10059;SDS011;5069;49.306;8.636;2023-05-16T13:55:03;3.37;;;1.50;;
10059;SDS011;5069;49.306;8.636;2023-05-16T13:58:05;8.80;;;1.93;;
10059;SDS011;5069;49.306;8.636;2023-05-16T14:01:07;5.47;;;1.93;;
10059;SDS011;5069;49.306;8.636;2023-05-16T14:04:08;5.40;;;2.10;;
10059;SDS011;5069;49.306;8.636;2023-05-16T14:07:10;6.17;;;1.70;;
10059;SDS011;5069;49.306;8.636;2023-05-16T14:10:11;4.57;;;2.03;;
10059;SDS011;5069;49.306;8.636;2023-05-16T14:13:13;7.60;;;2.07;;
10059;SDS011;5069;49.306;8.636;2023-05-16T14:16:14;3.70;;;1.70;;
10059;SDS011;5069;49.306;8.636;2023-05-16T14:19:16;5.87;;;1.93;;
10059;SDS011;5069;49.306;8.636;2023-05-16T14:22:19;5.90;;;1.80;;
10059;SDS011;5069;49.306;8.636;2023-05-16T14:25:21;5.20;;;1.83;;
10059;SDS011;5069;49.306;8.636;2023-05-16T14:28:22;3.80;;;1.50;;
10059;SDS011;5069;49.306;8.636;2023-05-16T14:31:24;5.30;;;1.50;;
10059;SDS011;5069;49.306;8.636;2023-05-16T14:34:25;6.20;;;1.90;;
10059;SDS011;5069;49.306;8.636;2023-05-16T14:37:27;4.90;;;1.50;;
10059;SDS011;5069;49.306;8.636;2023-05-16T14:40:28;9.77;;;2.00;;
10059;SDS011;5069;49.306;8.636;2023-05-16T14:43:30;5.43;;;1.50;;
10059;SDS011;5069;49.306;8.636;2023-05-16T14:46:32;3.60;;;1.27;;
10059;SDS011;5069;49.306;8.636;2023-05-16T14:49:34;4.33;;;1.50;;
10059;SDS011;5069;49.306;8.636;2023-05-16T14:52:36;5.10;;;1.60;;
10059;SDS011;5069;49.306;8.636;2023-05-16T14:55:40;4.87;;;1.77;;
10059;SDS011;5069;49.306;8.636;2023-05-16T14:58:41;4.77;;;1.60;;
10059;SDS011;5069;49.306;8.636;2023-05-16T15:01:43;8.93;;;1.83;;
10059;SDS011;5069;49.306;8.636;2023-05-16T15:04:44;7.60;;;1.77;;
10059;SDS011;5069;49.306;8.636;2023-05-16T15:07:46;9.57;;;1.80;;
10059;SDS011;5069;49.306;8.636;2023-05-16T15:10:48;9.30;;;4.67;;
10059;SDS011;5069;49.306;8.636;2023-05-16T15:13:49;9.27;;;3.63;;
10059;SDS011;5069;49.306;8.636;2023-05-16T15:16:51;8.23;;;3.67;;
10059;SDS011;5069;49.306;8.636;2023-05-16T15:19:53;6.93;;;2.13;;
10059;SDS011;5069;49.306;8.636;2023-05-16T15:22:54;8.53;;;3.63;;
10059;SDS011;5069;49.306;8.636;2023-05-16T15:25:56;4.83;;;1.53;;
10059;SDS011;5069;49.306;8.636;2023-05-16T15:28:57;4.27;;;1.50;;
10059;SDS011;5069;49.306;8.636;2023-05-16T15:32:02;5.40;;;1.60;;
10059;SDS011;5069;49.306;8.636;2023-05-16T15:35:05;3.80;;;1.43;;
10059;SDS011;5069;49.306;8.636;2023-05-16T15:38:07;4.60;;;1.77;;
10059;SDS011;5069;49.306;8.636;2023-05-16T15:41:09;3.83;;;1.40;;
10059;SDS011;5069;49.306;8.636;2023-05-16T15:44:30;4.10;;;1.43;;
10059;SDS011;5069;49.306;8.636;2023-05-16T15:47:32;3.47;;;1.33;;
10059;SDS011;5069;49.306;8.636;2023-05-16T15:50:34;2.10;;;1.20;;
10059;SDS011;5069;49.306;8.636;2023-05-16T15:53:35;2.23;;;0.90;;
10059;SDS011;5069;49.306;8.636;2023-05-16T15:56:37;3.93;;;1.23;;
10059;SDS011;5069;49.306;8.636;2023-05-16T15:59:38;4.97;;;1.10;;
10059;SDS011;5069;49.306;8.636;2023-05-16T16:02:42;5.73;;;1.60;;
10059;SDS011;5069;49.306;8.636;2023-05-16T16:05:46;3.33;;;1.10;;
10059;SDS011;5069;49.306;8.636;2023-05-16T16:08:48;4.00;;;0.90;;
10059;SDS011;5069;49.306;8.636;2023-05-16T16:11:51;5.33;;;1.50;;
10059;SDS011;5069;49.306;8.636;2023-05-16T16:14:56;2.53;;;1.03;;
10059;SDS011;5069;49.306;8.636;2023-05-16T16:17:58;2.33;;;1.00;;
10059;SDS011;5069;49.306;8.636;2023-05-16T16:21:00;3.53;;;1.20;;
10059;SDS011;5069;49.306;8.636;2023-05-16T16:24:03;2.07;;;1.00;;
10059;SDS011;5069;49.306;8.636;2023-05-16T16:27:04;2.13;;;1.00;;
10059;SDS011;5069;49.306;8.636;2023-05-16T16:30:06;4.57;;;1.20;;
10059;SDS011;5069;49.306;8.636;2023-05-16T16:33:09;4.37;;;1.40;;
10059;SDS011;5069;49.306;8.636;2023-05-16T16:36:11;4.33;;;1.20;;
10059;SDS011;5069;49.306;8.636;2023-05-16T16:39:12;6.50;;;1.30;;
10059;SDS011;5069;49.306;8.636;2023-05-16T16:42:13;4.37;;;1.40;;
10059;SDS011;5069;49.306;8.636;2023-05-16T16:45:15;4.20;;;1.07;;
10059;SDS011;5069;49.306;8.636;2023-05-16T16:48:16;2.53;;;1.00;;
10059;SDS011;5069;49.306;8.636;2023-05-16T16:51:18;2.97;;;1.00;;
10059;SDS011;5069;49.306;8.636;2023-05-16T16:54:19;3.57;;;1.50;;
10059;SDS011;5069;49.306;8.636;2023-05-16T16:57:22;2.27;;;0.90;;
10059;SDS011;5069;49.306;8.636;2023-05-16T17:00:23;7.03;;;1.10;;
10059;SDS011;5069;49.306;8.636;2023-05-16T17:03:25;4.80;;;1.27;;
10059;SDS011;5069;49.306;8.636;2023-05-16T17:06:27;7.50;;;1.37;;
10059;SDS011;5069;49.306;8.636;2023-05-16T17:09:31;3.17;;;1.00;;
10059;SDS011;5069;49.306;8.636;2023-05-16T17:12:33;4.50;;;1.27;;
10059;SDS011;5069;49.306;8.636;2023-05-16T17:15:35;4.20;;;1.30;;
10059;SDS011;5069;49.306;8.636;2023-05-16T17:18:37;3.80;;;1.47;;
10059;SDS011;5069;49.306;8.636;2023-05-16T17:21:40;5.53;;;1.40;;
10059;SDS011;5069;49.306;8.636;2023-05-16T17:24:43;6.67;;;1.50;;
10059;SDS011;5069;49.306;8.636;2023-05-16T17:27:45;2.80;;;1.20;;
10059;SDS011;5069;49.306;8.636;2023-05-16T17:30:47;5.63;;;1.30;;
10059;SDS011;5069;49.306;8.636;2023-05-16T17:33:49;3.63;;;1.10;;
10059;SDS011;5069;49.306;8.636;2023-05-16T17:36:51;2.77;;;1.27;;
10059;SDS011;5069;49.306;8.636;2023-05-16T17:39:54;3.97;;;1.10;;
10059;SDS011;5069;49.306;8.636;2023-05-16T17:42:55;8.43;;;1.40;;
10059;SDS011;5069;49.306;8.636;2023-05-16T17:45:57;3.03;;;1.10;;
10059;SDS011;5069;49.306;8.636;2023-05-16T17:48:59;4.97;;;1.20;;
10059;SDS011;5069;49.306;8.636;2023-05-16T17:52:00;2.70;;;0.93;;
10059;SDS011;5069;49.306;8.636;2023-05-16T17:55:03;3.23;;;0.90;;
10059;SDS011;5069;49.306;8.636;2023-05-16T17:58:06;4.07;;;1.17;;
10059;SDS011;5069;49.306;8.636;2023-05-16T18:01:09;3.63;;;1.03;;
10059;SDS011;5069;49.306;8.636;2023-05-16T18:04:11;2.93;;;1.00;;
10059;SDS011;5069;49.306;8.636;2023-05-16T18:07:13;3.93;;;1.20;;
10059;SDS011;5069;49.306;8.636;2023-05-16T18:10:15;3.60;;;1.17;;
10059;SDS011;5069;49.306;8.636;2023-05-16T18:13:16;3.83;;;1.13;;
10059;SDS011;5069;49.306;8.636;2023-05-16T18:16:18;3.13;;;1.10;;
10059;SDS011;5069;49.306;8.636;2023-05-16T18:19:19;3.40;;;1.10;;
10059;SDS011;5069;49.306;8.636;2023-05-16T18:22:21;4.17;;;1.00;;
10059;SDS011;5069;49.306;8.636;2023-05-16T18:25:22;3.80;;;1.20;;
10059;SDS011;5069;49.306;8.636;2023-05-16T18:28:24;3.40;;;1.00;;
10059;SDS011;5069;49.306;8.636;2023-05-16T18:31:26;3.63;;;1.00;;
10059;SDS011;5069;49.306;8.636;2023-05-16T18:34:27;2.97;;;1.57;;
10059;SDS011;5069;49.306;8.636;2023-05-16T18:37:29;4.30;;;1.00;;
10059;SDS011;5069;49.306;8.636;2023-05-16T18:40:31;1.73;;;0.90;;
10059;SDS011;5069;49.306;8.636;2023-05-16T18:43:34;5.37;;;1.30;;
10059;SDS011;5069;49.306;8.636;2023-05-16T18:46:36;1.40;;;0.90;;
10059;SDS011;5069;49.306;8.636;2023-05-16T18:49:38;3.93;;;1.17;;